CYSM

Fort Smith Airport

Fort Smith, Northwest Territories, Canada
METAR CYSM 172100Z 01003KT 15SM -SN OVC011 M14/M17 A3025 RMK SC8 SLP270
Observed Flight Rules
Nov-17 @ 21:00 UTC (59 minutes ago) Marginal Visual Flight Rules
Wind Visibility Clouds Conditions
10° at 3 knots 15 miles
  • Overcast at 1,100' AGL
  • Light Snow
Temperatures Readings
Current -14°C / 7°F
Dewpoint -17°C / 1°F
Humidity 78%
Altimeter 30.25" Hg
Pressure 1027 hPa
Elevation 203
METAR CYSM 172100Z 01003KT 15SM -SN OVC011 M14/M17 A3025 RMK SC8 SLP270
Observed Flight Rules
Nov-17 @ 21:00 UTC
(59 minutes ago)
MVFR
Wind Visibility
10° at 3 knots 15 miles
Clouds
  • Overcast at 1,100' AGL
Conditions
  • Light Snow
Temperature Dewpoint
-14°C / 7°F -17°C / 1°F
Humidity Altimeter Pressure
78% 30.25" Hg 1027 hPa